Time;durP1;ratioP1;P1;durP2;ratioP2;P2;SDS_P1;SDS_P2;PMS_P1;PMS_P2;Temp;Humidity;BMP_temperature;BMP_pressure;BME280_temperature;BME280_humidity;BME280_pressure;Samples;Min_cycle;Max_cycle;Signal;HPM_P1;HPM_P2
2021/04/29 00:02:18;;;;;;;6.27;2.40;;;11.40;99.90;;;;;;5019077;28;20406;-67
2021/04/29 00:04:44;;;;;;;5.85;2.72;;;11.40;99.90;;;;;;5035952;28;20279;-66
2021/04/29 00:07:10;;;;;;;9.50;3.20;;;11.40;99.90;;;;;;5036021;28;20687;-65
2021/04/29 00:09:36;;;;;;;6.23;2.90;;;11.40;99.90;;;;;;5036226;28;20216;-66
2021/04/29 00:12:03;;;;;;;6.10;3.40;;;11.40;99.90;;;;;;5036242;28;20521;-67
2021/04/29 00:14:29;;;;;;;5.68;1.73;;;11.30;99.90;;;;;;5017611;28;20186;-65
2021/04/29 00:16:54;;;;;;;5.30;2.97;;;11.30;99.90;;;;;;5015941;28;20202;-65
2021/04/29 00:19:20;;;;;;;6.47;3.17;;;11.40;99.90;;;;;;5015529;28;20199;-67
2021/04/29 00:21:46;;;;;;;7.67;2.80;;;11.40;99.90;;;;;;5016534;28;20175;-66
2021/04/29 00:24:12;;;;;;;5.93;2.28;;;11.40;99.90;;;;;;5031730;28;20421;-67
2021/04/29 00:26:38;;;;;;;5.50;2.53;;;11.50;99.90;;;;;;5035547;28;20513;-67
2021/04/29 00:29:04;;;;;;;4.07;1.87;;;11.50;99.90;;;;;;5035705;28;20197;-67
2021/04/29 00:31:30;;;;;;;6.53;3.30;;;11.50;99.90;;;;;;5036357;28;20170;-65
2021/04/29 00:33:57;;;;;;;6.03;3.63;;;11.50;99.90;;;;;;5022227;28;20460;-67
2021/04/29 00:36:23;;;;;;;6.28;3.53;;;11.60;99.90;;;;;;5015669;28;20175;-66
2021/04/29 00:38:48;;;;;;;3.87;2.40;;;11.60;99.90;;;;;;5015693;28;20585;-64
2021/04/29 00:41:14;;;;;;;5.60;3.87;;;11.60;99.90;;;;;;5015965;28;20405;-67
2021/04/29 00:43:40;;;;;;;6.70;3.53;;;11.60;99.90;;;;;;5025735;28;20257;-67
2021/04/29 00:46:12;;;;;;;13.03;3.13;;;11.70;99.90;;;;;;5035195;28;20177;-67
2021/04/29 00:48:37;;;;;;;4.30;3.20;;;11.60;99.90;;;;;;5035576;28;20544;-66
2021/04/29 00:51:03;;;;;;;5.73;3.40;;;11.70;99.90;;;;;;5033281;28;20188;-67
2021/04/29 00:53:40;;;;;;;5.73;3.33;;;11.70;99.90;;;;;;5015891;28;20204;-67
2021/04/29 00:56:07;;;;;;;4.80;3.17;;;11.70;99.90;;;;;;5015163;28;20166;-67
2021/04/29 00:58:33;;;;;;;8.38;3.70;;;11.70;99.90;;;;;;5015498;28;20190;-67
2021/04/29 01:00:59;;;;;;;3.70;2.95;;;11.70;99.90;;;;;;5030678;28;20178;-67
2021/04/29 01:03:43;;;;;;;5.40;3.50;;;11.80;99.90;;;;;;5035565;28;20174;-68
2021/04/29 01:06:17;;;;;;;4.25;3.63;;;11.80;99.90;;;;;;5034787;28;20174;-66
2021/04/29 01:08:48;;;;;;;5.20;3.35;;;11.80;99.90;;;;;;5035040;28;20208;-66
2021/04/29 01:11:18;;;;;;;3.85;3.17;;;11.80;99.90;;;;;;5017444;28;20170;-66
2021/04/29 01:14:05;;;;;;;3.13;2.55;;;11.80;99.90;;;;;;5016297;28;20171;-67
2021/04/29 01:16:32;;;;;;;5.20;3.65;;;11.80;99.90;;;;;;5014398;28;20206;-68
2021/04/29 01:19:00;;;;;;;4.55;2.42;;;11.80;99.90;;;;;;5014890;28;20191;-68
2021/04/29 01:21:28;;;;;;;5.53;2.25;;;11.90;99.90;;;;;;5033304;28;20167;-68
2021/04/29 01:24:18;;;;;;;4.28;2.95;;;11.90;99.90;;;;;;5034948;28;20197;-67
2021/04/29 01:26:46;;;;;;;5.82;3.45;;;11.90;99.90;;;;;;5034427;28;20679;-67
2021/04/29 01:29:15;;;;;;;6.75;3.72;;;11.90;99.90;;;;;;5031522;28;20197;-68
2021/04/29 01:31:43;;;;;;;4.80;2.80;;;12.00;99.90;;;;;;5014131;28;20185;-68
2021/04/29 01:34:12;;;;;;;3.33;2.92;;;12.00;99.90;;;;;;5014744;28;20257;-67
2021/04/29 01:36:40;;;;;;;6.20;3.80;;;12.00;99.90;;;;;;5014199;28;20194;-67
2021/04/29 01:39:08;;;;;;;4.45;2.55;;;12.10;99.90;;;;;;5016167;28;20544;-67
2021/04/29 01:41:38;;;;;;;3.38;2.38;;;12.10;99.90;;;;;;5034369;28;20640;-66
2021/04/29 01:44:05;;;;;;;3.85;3.42;;;12.20;99.90;;;;;;5034498;28;20173;-68
2021/04/29 01:46:32;;;;;;;6.35;4.00;;;12.20;99.90;;;;;;5034115;28;20241;-66
2021/04/29 01:48:58;;;;;;;5.20;3.30;;;12.20;99.90;;;;;;5033975;28;20198;-67
2021/04/29 01:51:24;;;;;;;5.33;3.00;;;12.20;99.90;;;;;;5014708;28;20251;-65
2021/04/29 01:53:50;;;;;;;5.73;3.43;;;12.20;99.90;;;;;;5014635;28;20405;-67
2021/04/29 01:56:16;;;;;;;5.63;2.67;;;12.20;99.90;;;;;;5014081;28;20265;-67
2021/04/29 01:58:42;;;;;;;4.83;3.07;;;12.30;99.90;;;;;;5014322;28;20270;-67
2021/04/29 02:01:07;;;;;;;4.63;3.40;;;12.30;99.90;;;;;;5031142;28;20467;-67
2021/04/29 02:03:33;;;;;;;5.40;3.47;;;12.30;99.90;;;;;;5034031;28;20215;-67
2021/04/29 02:05:59;;;;;;;4.40;2.80;;;12.30;99.90;;;;;;5033704;28;20166;-69
2021/04/29 02:08:24;;;;;;;4.17;2.90;;;12.30;99.90;;;;;;5025645;28;20198;-67
2021/04/29 02:10:52;;;;;;;4.97;2.80;;;12.30;99.90;;;;;;5014240;28;20174;-67
2021/04/29 02:13:19;;;;;;;5.05;2.90;;;12.30;99.90;;;;;;5023615;28;20178;-68
2021/04/29 02:15:56;;;;;;;15.55;3.70;;;12.30;99.90;;;;;;5033746;28;20213;-65
2021/04/29 02:18:23;;;;;;;6.78;3.83;;;12.30;99.90;;;;;;5033490;28;20213;-68
2021/04/29 02:20:50;;;;;;;4.85;2.92;;;12.30;99.90;;;;;;5016945;28;20212;-67
2021/04/29 02:23:23;;;;;;;4.22;3.22;;;12.30;99.90;;;;;;5014185;28;20171;-66
2021/04/29 02:25:52;;;;;;;6.07;2.53;;;12.30;99.90;;;;;;5013651;28;20691;-66
2021/04/29 02:28:19;;;;;;;4.80;3.13;;;12.30;99.90;;;;;;5022889;28;20202;-66
2021/04/29 02:30:46;;;;;;;3.58;2.17;;;12.30;99.90;;;;;;5033829;28;20177;-67
2021/04/29 02:33:12;;;;;;;2.85;1.67;;;12.30;99.90;;;;;;5033744;28;20262;-68
2021/04/29 02:35:39;;;;;;;3.63;1.90;;;12.30;99.90;;;;;;5033127;28;20600;-67
2021/04/29 02:38:05;;;;;;;3.58;1.80;;;12.30;99.90;;;;;;5025993;28;20476;-67
2021/04/29 02:40:31;;;;;;;5.72;2.95;;;12.30;99.90;;;;;;5014168;28;20163;-66
2021/04/29 02:42:58;;;;;;;2.70;1.27;;;12.30;99.90;;;;;;5012294;28;20237;-66
2021/04/29 02:45:24;;;;;;;3.13;1.70;;;12.30;99.90;;;;;;5013898;28;20211;-67
2021/04/29 02:47:52;;;;;;;3.03;1.60;;;12.30;99.90;;;;;;5031135;28;20181;-66
2021/04/29 02:50:25;;;;;;;2.97;1.30;;;12.30;99.90;;;;;;5033188;28;20197;-66
2021/04/29 02:52:52;;;;;;;3.20;1.38;;;12.30;99.90;;;;;;5033240;28;20181;-66
2021/04/29 02:55:20;;;;;;;3.30;1.80;;;12.30;99.90;;;;;;5033700;28;20308;-65
2021/04/29 02:57:46;;;;;;;2.38;1.00;;;12.30;99.90;;;;;;5015447;28;20553;-68
2021/04/29 03:00:15;;;;;;;3.40;1.43;;;12.30;99.90;;;;;;5013594;28;20175;-65
2021/04/29 03:02:42;;;;;;;2.97;1.33;;;12.40;99.90;;;;;;5013726;28;20487;-66
2021/04/29 03:05:11;;;;;;;4.03;2.00;;;12.40;99.90;;;;;;5021803;28;20185;-67
2021/04/29 03:07:38;;;;;;;5.22;2.42;;;12.40;99.90;;;;;;5028394;28;20584;-67
2021/04/29 03:10:08;;;;;;;4.90;2.55;;;12.30;99.90;;;;;;5013632;28;20253;-66
2021/04/29 03:12:34;;;;;;;3.60;1.48;;;12.30;99.90;;;;;;5013604;28;20170;-67
2021/04/29 03:15:00;;;;;;;2.53;0.83;;;12.30;99.90;;;;;;5014060;28;20175;-65
2021/04/29 03:17:26;;;;;;;2.63;0.80;;;12.20;99.90;;;;;;5012976;28;20576;-67
2021/04/29 03:19:52;;;;;;;2.65;1.15;;;12.10;99.90;;;;;;5033144;28;20488;-66
2021/04/29 03:22:19;;;;;;;3.88;1.20;;;12.00;99.90;;;;;;5033222;28;20206;-66
2021/04/29 03:24:45;;;;;;;2.47;1.38;;;12.00;99.90;;;;;;5033282;28;20224;-67
2021/04/29 03:27:11;;;;;;;3.95;1.17;;;12.00;99.90;;;;;;5019768;28;20190;-65
2021/04/29 03:29:36;;;;;;;2.33;1.03;;;12.00;99.90;;;;;;5013396;28;20198;-65
2021/04/29 03:32:02;;;;;;;2.07;0.90;;;11.90;99.90;;;;;;5013411;28;20190;-66
2021/04/29 03:34:28;;;;;;;2.50;1.43;;;11.90;99.90;;;;;;5013370;28;20175;-65
2021/04/29 03:36:54;;;;;;;2.90;1.00;;;11.90;99.90;;;;;;5022744;28;20464;-67
2021/04/29 03:39:19;;;;;;;2.17;0.77;;;11.90;99.90;;;;;;5033035;28;20647;-66
2021/04/29 03:41:45;;;;;;;1.77;1.20;;;11.90;99.90;;;;;;5032905;28;20253;-66
2021/04/29 03:44:11;;;;;;;2.03;1.13;;;11.80;99.90;;;;;;5031238;28;20633;-65
2021/04/29 03:46:36;;;;;;;1.70;1.23;;;11.80;99.90;;;;;;5012927;28;20542;-67
2021/04/29 03:49:02;;;;;;;1.57;0.90;;;11.80;99.90;;;;;;5012987;28;20202;-66
2021/04/29 03:51:28;;;;;;;1.43;0.87;;;11.70;99.90;;;;;;5012944;28;20218;-65
2021/04/29 03:53:53;;;;;;;2.07;1.10;;;11.70;99.90;;;;;;5014665;28;20750;-66
2021/04/29 03:56:19;;;;;;;1.67;1.30;;;11.60;99.90;;;;;;5034252;28;20649;-66
2021/04/29 03:58:44;;;;;;;2.40;1.03;;;11.50;99.90;;;;;;5022765;28;20198;-66
2021/04/29 04:01:10;;;;;;;1.20;0.77;;;11.50;99.90;;;;;;5016813;28;20178;-64
2021/04/29 04:03:36;;;;;;;1.83;0.97;;;11.50;99.90;;;;;;5016529;28;20258;-66
2021/04/29 04:06:01;;;;;;;1.90;0.90;;;11.40;99.90;;;;;;5016235;28;20647;-67
2021/04/29 04:08:27;;;;;;;1.60;0.90;;;11.40;99.90;;;;;;5026364;28;20202;-66
2021/04/29 04:10:53;;;;;;;1.67;0.70;;;11.40;99.90;;;;;;5036324;28;20617;-66
2021/04/29 04:13:20;;;;;;;1.27;0.60;;;11.30;99.90;;;;;;5036105;28;20802;-65
2021/04/29 04:15:46;;;;;;;1.20;0.85;;;11.30;99.90;;;;;;5034566;28;20170;-67
2021/04/29 04:18:12;;;;;;;1.13;0.90;;;11.30;99.90;;;;;;5016128;28;20214;-66
2021/04/29 04:20:39;;;;;;;1.50;0.55;;;11.20;99.90;;;;;;5016426;28;20167;-66
2021/04/29 04:23:05;;;;;;;0.93;0.75;;;11.20;99.90;;;;;;5016147;28;20182;-65
2021/04/29 04:25:31;;;;;;;1.37;0.80;;;11.20;99.90;;;;;;5016523;28;20167;-66
2021/04/29 04:27:56;;;;;;;0.70;0.40;;;11.20;99.90;;;;;;5034358;28;20251;-67
2021/04/29 04:30:22;;;;;;;0.80;0.57;;;11.20;99.90;;;;;;5035928;28;20199;-65
2021/04/29 04:32:48;;;;;;;1.50;0.97;;;11.20;99.90;;;;;;5035932;28;20520;-67
2021/04/29 04:35:14;;;;;;;0.90;0.60;;;11.20;99.90;;;;;;5035864;28;20416;-66
2021/04/29 04:37:40;;;;;;;0.90;0.70;;;11.20;99.90;;;;;;5018701;28;20221;-65
2021/04/29 04:40:07;;;;;;;1.10;0.80;;;11.10;99.90;;;;;;5015655;28;20637;-66
2021/04/29 04:42:33;;;;;;;1.33;0.77;;;11.10;99.90;;;;;;5015841;28;20687;-65
2021/04/29 04:44:59;;;;;;;1.20;1.05;;;11.10;99.90;;;;;;5023109;28;20166;-65
2021/04/29 04:47:25;;;;;;;0.83;0.60;;;11.10;99.90;;;;;;5035042;28;20240;-65
2021/04/29 04:49:50;;;;;;;0.90;0.80;;;11.20;99.90;;;;;;5035639;28;20672;-65
2021/04/29 04:52:16;;;;;;;0.97;0.90;;;11.20;99.90;;;;;;5035593;28;20691;-67
2021/04/29 04:54:41;;;;;;;2.60;0.77;;;11.20;99.90;;;;;;5030528;28;20171;-67
2021/04/29 04:57:09;;;;;;;0.80;0.60;;;11.30;99.90;;;;;;5015135;28;20198;-67
2021/04/29 04:59:35;;;;;;;2.55;1.33;;;11.40;99.90;;;;;;5015626;28;20191;-66
2021/04/29 05:02:01;;;;;;;1.20;1.10;;;11.50;99.90;;;;;;5014303;28;20167;-66
2021/04/29 05:04:28;;;;;;;0.63;0.63;;;11.80;99.90;;;;;;5030695;28;20525;-68
2021/04/29 05:06:55;;;;;;;1.23;0.90;;;12.00;99.90;;;;;;5034164;28;20177;-67
2021/04/29 05:09:21;;;;;;;1.10;1.00;;;12.20;99.90;;;;;;5034974;28;20198;-68
2021/04/29 05:11:46;;;;;;;1.10;1.00;;;12.30;99.90;;;;;;5035232;28;20170;-67
2021/04/29 05:14:12;;;;;;;3.90;0.90;;;12.40;99.90;;;;;;5021024;28;20183;-68
2021/04/29 05:16:38;;;;;;;1.77;1.03;;;12.50;99.90;;;;;;5014811;28;20228;-67
2021/04/29 05:19:04;;;;;;;2.47;0.77;;;12.50;99.90;;;;;;5014996;28;20268;-68
2021/04/29 05:21:29;;;;;;;2.20;0.87;;;12.50;99.90;;;;;;5015228;28;20216;-67
2021/04/29 05:23:55;;;;;;;2.57;1.10;;;12.50;99.90;;;;;;5025646;28;20167;-67
2021/04/29 05:26:21;;;;;;;1.90;0.80;;;12.70;99.90;;;;;;5034166;28;20202;-66
2021/04/29 05:28:46;;;;;;;3.20;0.87;;;12.90;99.90;;;;;;5034870;28;20571;-67
2021/04/29 05:31:12;;;;;;;3.40;0.97;;;13.10;99.90;;;;;;5034810;28;20175;-67
2021/04/29 05:33:37;;;;;;;5.00;1.30;;;13.30;99.90;;;;;;5026164;28;20178;-68
2021/04/29 05:36:03;;;;;;;3.90;0.70;;;13.30;99.90;;;;;;5014791;28;20178;-66
2021/04/29 05:38:29;;;;;;;4.73;1.40;;;13.30;99.90;;;;;;5014844;28;20217;-66
2021/04/29 05:40:55;;;;;;;4.20;1.23;;;13.40;99.90;;;;;;5014791;28;20481;-67
2021/04/29 05:43:20;;;;;;;4.60;1.10;;;13.40;99.90;;;;;;5033403;28;20170;-68
2021/04/29 05:45:46;;;;;;;4.73;1.00;;;13.40;99.90;;;;;;5034138;28;20250;-69
2021/04/29 05:48:12;;;;;;;4.90;1.13;;;13.50;99.90;;;;;;5034629;28;20248;-67
2021/04/29 05:50:37;;;;;;;5.13;1.30;;;13.40;99.90;;;;;;5034267;28;20193;-64
2021/04/29 05:53:03;;;;;;;5.77;1.20;;;13.40;99.90;;;;;;5017874;28;20182;-66
2021/04/29 05:55:29;;;;;;;5.00;1.53;;;13.30;99.90;;;;;;5014801;28;20626;-68
2021/04/29 05:57:58;;;;;;;4.80;0.90;;;13.20;99.90;;;;;;5013992;28;20719;-68
2021/04/29 06:00:25;;;;;;;5.20;1.13;;;13.20;99.90;;;;;;5014432;28;20179;-73
2021/04/29 06:02:50;;;;;;;5.10;1.10;;;13.20;99.90;;;;;;5027570;28;20477;-69
2021/04/29 06:05:16;;;;;;;5.37;1.00;;;13.20;99.90;;;;;;5034320;28;20430;-70
2021/04/29 06:07:42;;;;;;;5.73;1.50;;;13.10;99.90;;;;;;5033686;28;20202;-71
2021/04/29 06:10:09;;;;;;;5.97;1.47;;;13.10;99.90;;;;;;5034093;28;20896;-70
2021/04/29 06:12:34;;;;;;;4.50;1.10;;;13.10;99.90;;;;;;5022391;28;20530;-69
2021/04/29 06:15:00;;;;;;;5.80;1.37;;;13.20;99.90;;;;;;5013943;28;20423;-71
2021/04/29 06:17:26;;;;;;;6.47;1.73;;;13.30;99.90;;;;;;5013505;28;20202;-68
2021/04/29 06:19:52;;;;;;;7.80;1.50;;;13.20;99.90;;;;;;5013970;28;20659;-71
2021/04/29 06:22:17;;;;;;;5.20;1.40;;;13.30;99.90;;;;;;5022302;28;20225;-71
2021/04/29 06:24:43;;;;;;;5.57;1.53;;;13.30;99.90;;;;;;5049054;28;20465;-70
2021/04/29 06:27:09;;;;;;;6.00;1.77;;;13.30;99.90;;;;;;5033424;28;21054;-72
2021/04/29 06:29:35;;;;;;;5.43;1.57;;;13.40;99.90;;;;;;5033454;28;20430;-67
2021/04/29 06:32:01;;;;;;;7.80;1.50;;;13.50;99.90;;;;;;5027370;28;20517;-68
2021/04/29 06:34:27;;;;;;;7.00;2.23;;;13.70;99.90;;;;;;5014173;28;20971;-66
2021/04/29 06:36:53;;;;;;;7.60;2.00;;;13.90;99.90;;;;;;5013513;28;20813;-66
2021/04/29 06:39:19;;;;;;;7.97;1.73;;;14.10;99.90;;;;;;5013869;28;20193;-64
2021/04/29 06:41:46;;;;;;;6.33;1.80;;;14.50;99.90;;;;;;5030416;28;20424;-68
2021/04/29 06:44:13;;;;;;;6.97;2.40;;;14.80;99.90;;;;;;5033535;28;20447;-65
2021/04/29 06:46:38;;;;;;;6.27;1.37;;;15.10;99.90;;;;;;5033306;28;20426;-66
2021/04/29 06:49:06;;;;;;;5.80;1.60;;;15.30;99.90;;;;;;5033473;28;20431;-66
2021/04/29 06:51:32;;;;;;;7.30;1.80;;;15.40;99.90;;;;;;5018632;28;20448;-64
2021/04/29 06:53:58;;;;;;;6.40;1.40;;;15.50;99.90;;;;;;5013654;28;20377;-65
2021/04/29 06:56:23;;;;;;;7.37;1.87;;;15.70;99.90;;;;;;5013265;28;20460;-66
2021/04/29 06:58:49;;;;;;;7.27;1.87;;;15.80;99.90;;;;;;5018690;28;20672;-68
2021/04/29 07:01:15;;;;;;;5.97;2.00;;;16.10;99.90;;;;;;5033576;28;20195;-66
2021/04/29 07:03:40;;;;;;;6.40;1.77;;;16.40;99.90;;;;;;5033230;28;20168;-66
2021/04/29 07:06:07;;;;;;;5.83;2.27;;;16.90;99.90;;;;;;5033131;28;20175;-66
2021/04/29 07:08:33;;;;;;;6.30;1.87;;;17.20;99.90;;;;;;5032324;28;20199;-66
2021/04/29 07:10:58;;;;;;;6.53;2.80;;;17.70;99.90;;;;;;5033292;28;20411;-67
2021/04/29 07:13:24;;;;;;;5.93;2.07;;;17.90;99.90;;;;;;5022319;28;20185;-70
2021/04/29 07:15:50;;;;;;;6.93;2.80;;;18.20;99.90;;;;;;5012991;28;20175;-68
2021/04/29 07:18:15;;;;;;;5.67;2.10;;;18.50;99.90;;;;;;5013157;28;20835;-68
2021/04/29 07:20:42;;;;;;;8.03;2.57;;;19.00;99.10;;;;;;5011919;28;20178;-67
2021/04/29 07:23:08;;;;;;;8.13;2.33;;;19.40;96.50;;;;;;5020410;28;20182;-66
2021/04/29 07:25:34;;;;;;;7.03;2.97;;;19.50;96.00;;;;;;5033211;28;20780;-69
2021/04/29 07:28:00;;;;;;;6.60;2.30;;;19.50;95.10;;;;;;5031387;28;20475;-67
2021/04/29 07:30:27;;;;;;;5.57;2.07;;;19.50;95.70;;;;;;5037064;28;20871;-67
2021/04/29 07:32:53;;;;;;;5.40;1.90;;;19.40;97.20;;;;;;5032457;28;20446;-67
2021/04/29 07:35:21;;;;;;;7.50;2.20;;;19.50;97.60;;;;;;5016932;28;20780;-67
2021/04/29 07:37:47;;;;;;;6.80;3.37;;;19.90;96.70;;;;;;5016305;28;20444;-66
2021/04/29 07:40:13;;;;;;;6.30;2.23;;;20.50;97.80;;;;;;5015694;28;20447;-68
2021/04/29 07:42:38;;;;;;;4.73;1.73;;;21.50;96.10;;;;;;5017832;28;20217;-67
2021/04/29 07:45:05;;;;;;;5.03;2.10;;;22.60;94.50;;;;;;5036666;28;20454;-68
2021/04/29 07:47:31;;;;;;;5.00;2.00;;;23.60;92.00;;;;;;5036189;28;20637;-68
2021/04/29 07:49:56;;;;;;;4.97;2.13;;;24.20;88.90;;;;;;5036168;28;20532;-68
2021/04/29 07:52:22;;;;;;;7.30;2.57;;;24.40;85.50;;;;;;5036247;28;20202;-69
2021/04/29 07:54:47;;;;;;;5.40;2.23;;;24.60;81.70;;;;;;5037052;28;20548;-69
2021/04/29 07:57:13;;;;;;;5.30;2.33;;;24.90;83.90;;;;;;5035981;28;20193;-71
2021/04/29 07:59:39;;;;;;;9.30;2.37;;;25.50;78.70;;;;;;5036270;28;20194;-71
2021/04/29 08:02:05;;;;;;;4.70;2.33;;;25.70;74.50;;;;;;5036048;28;20162;-73
2021/04/29 08:04:32;;;;;;;3.93;1.80;;;26.30;77.20;;;;;;5016771;28;20274;-72
2021/04/29 08:06:57;;;;;;;4.27;2.40;;;27.10;72.90;;;;;;5016261;28;20651;-72
2021/04/29 08:09:23;;;;;;;4.50;2.40;;;27.30;72.90;;;;;;5022025;28;20452;-71
2021/04/29 08:11:49;;;;;;;4.43;2.37;;;27.40;69.90;;;;;;5036819;28;20166;-72
2021/04/29 08:14:15;;;;;;;4.47;2.60;;;27.20;69.60;;;;;;5028220;28;20175;-71
2021/04/29 08:16:40;;;;;;;8.47;3.20;;;27.30;71.50;;;;;;5035677;28;20889;-71
2021/04/29 08:19:06;;;;;;;3.77;1.93;;;28.00;68.90;;;;;;5028764;28;20249;-69
2021/04/29 08:21:32;;;;;;;5.20;2.27;;;28.50;66.80;;;;;;5023943;28;20185;-72
2021/04/29 08:23:58;;;;;;;5.53;3.10;;;28.90;62.10;;;;;;5030782;28;20185;-67
2021/04/29 08:26:24;;;;;;;4.80;2.70;;;28.30;58.40;;;;;;5017778;28;20265;-66
2021/04/29 08:28:50;;;;;;;5.10;2.43;;;27.20;60.20;;;;;;5033971;28;20448;-66
2021/04/29 08:31:16;;;;;;;4.87;2.83;;;26.20;62.00;;;;;;5031347;28;20460;-65
2021/04/29 08:33:41;;;;;;;4.70;2.53;;;25.20;66.20;;;;;;5017219;28;20254;-65
2021/04/29 08:36:08;;;;;;;5.60;3.17;;;24.50;67.60;;;;;;5016457;28;20269;-67
2021/04/29 08:38:35;;;;;;;4.57;2.77;;;23.80;68.30;;;;;;5015429;28;20210;-67
2021/04/29 08:41:02;;;;;;;4.80;2.90;;;23.60;69.30;;;;;;5032665;28;20409;-67
2021/04/29 08:43:28;;;;;;;5.30;3.00;;;23.60;68.70;;;;;;5015522;28;20476;-67
2021/04/29 08:45:55;;;;;;;4.87;3.37;;;23.80;70.80;;;;;;5020039;28;20417;-66
2021/04/29 08:48:23;;;;;;;5.40;2.50;;;23.80;69.60;;;;;;5033658;28;20796;-67
2021/04/29 08:50:49;;;;;;;6.03;3.13;;;23.50;66.80;;;;;;5021175;28;20441;-67
2021/04/29 08:53:15;;;;;;;5.60;3.80;;;23.20;67.00;;;;;;5022232;28;20441;-68
2021/04/29 08:55:41;;;;;;;5.53;3.73;;;23.60;67.40;;;;;;5031608;28;20432;-65
2021/04/29 08:58:08;;;;;;;5.00;2.73;;;24.30;67.30;;;;;;5032981;28;20552;-66
2021/04/29 09:00:34;;;;;;;5.33;3.13;;;25.20;69.00;;;;;;5023769;28;20441;-65
2021/04/29 09:02:59;;;;;;;4.80;3.00;;;25.70;63.90;;;;;;5024071;28;20404;-66
2021/04/29 09:05:33;;;;;;;5.03;2.93;;;25.30;64.20;;;;;;5026086;28;20179;-65
2021/04/29 09:08:07;;;;;;;5.70;3.10;;;24.50;65.30;;;;;;5025466;28;20301;-67
2021/04/29 09:10:36;;;;;;;7.00;3.30;;;23.90;65.50;;;;;;5025400;28;20796;-66
2021/04/29 09:13:22;;;;;;;5.53;3.07;;;23.40;66.10;;;;;;5016289;28;20426;-66
2021/04/29 09:15:49;;;;;;;5.07;2.70;;;22.90;66.20;;;;;;5015968;28;20425;-66
2021/04/29 09:18:17;;;;;;;6.03;3.53;;;22.50;66.90;;;;;;5017016;28;20530;-66
2021/04/29 09:20:57;;;;;;;4.80;2.73;;;22.00;67.60;;;;;;5026284;28;20428;-66
2021/04/29 09:23:36;;;;;;;5.00;2.90;;;21.50;71.80;;;;;;5032113;28;20518;-66
2021/04/29 09:26:07;;;;;;;5.57;3.00;;;21.00;70.50;;;;;;5013319;28;20446;-68
2021/04/29 09:28:40;;;;;;;6.13;3.13;;;20.50;68.90;;;;;;5017899;28;20448;-64
2021/04/29 09:31:14;;;;;;;5.80;3.27;;;19.90;71.10;;;;;;5033845;28;20400;-67
2021/04/29 09:33:46;;;;;;;7.10;4.00;;;19.40;74.30;;;;;;5030452;28;20431;-67
2021/04/29 09:36:21;;;;;;;6.17;3.50;;;19.30;74.50;;;;;;5014316;28;20460;-66
2021/04/29 09:38:55;;;;;;;6.40;3.67;;;18.80;76.20;;;;;;5020934;28;20901;-68
2021/04/29 09:41:23;;;;;;;7.00;3.33;;;18.50;77.40;;;;;;5027663;28;20432;-65
2021/04/29 09:44:16;;;;;;;6.37;3.83;;;18.10;80.20;;;;;;5014671;28;20467;-65
2021/04/29 09:46:49;;;;;;;6.23;2.90;;;17.70;85.20;;;;;;5024299;28;20861;-66
2021/04/29 09:49:33;;;;;;;6.17;3.30;;;17.20;90.80;;;;;;5020886;28;20474;-66
2021/04/29 09:52:01;;;;;;;6.00;3.33;;;16.70;93.60;;;;;;5025989;28;20516;-67
2021/04/29 09:54:34;;;;;;;5.70;2.80;;;16.30;98.10;;;;;;5049463;28;20818;-66
2021/04/29 09:57:04;;;;;;;5.43;2.27;;;16.00;98.40;;;;;;5024311;28;20461;-67
2021/04/29 09:59:31;;;;;;;4.87;2.40;;;15.70;98.10;;;;;;5033500;28;20989;-67
2021/04/29 10:01:58;;;;;;;7.23;2.73;;;15.30;99.40;;;;;;5022707;28;20425;-66
2021/04/29 10:04:25;;;;;;;5.30;2.60;;;15.00;99.90;;;;;;5017598;28;20417;-68
2021/04/29 10:06:53;;;;;;;7.97;3.13;;;14.60;99.90;;;;;;5033536;28;20423;-67
2021/04/29 10:09:26;;;;;;;6.40;2.97;;;14.30;99.90;;;;;;5018526;28;20445;-66
2021/04/29 10:11:57;;;;;;;6.23;2.93;;;14.20;99.90;;;;;;5033906;28;20412;-67
2021/04/29 10:14:25;;;;;;;8.00;3.43;;;14.30;99.90;;;;;;5030479;28;20422;-67
2021/04/29 10:16:51;;;;;;;6.67;3.30;;;14.50;99.90;;;;;;5015964;28;20548;-67
2021/04/29 10:19:17;;;;;;;8.13;3.37;;;14.90;99.90;;;;;;5015137;28;20464;-66
2021/04/29 10:21:43;;;;;;;6.43;3.70;;;15.50;99.90;;;;;;5033664;28;20903;-66
2021/04/29 10:24:10;;;;;;;9.07;3.47;;;16.20;99.90;;;;;;5033399;28;20184;-67
2021/04/29 10:26:38;;;;;;;7.40;3.53;;;16.90;99.90;;;;;;5036199;28;20429;-67
2021/04/29 10:29:05;;;;;;;5.90;2.93;;;17.50;99.90;;;;;;5033491;28;20512;-67
2021/04/29 10:31:34;;;;;;;7.33;4.40;;;18.10;99.10;;;;;;5014827;28;20765;-67
2021/04/29 10:34:14;;;;;;;9.93;4.30;;;18.70;98.40;;;;;;5014519;28;20469;-67
2021/04/29 10:36:42;;;;;;;6.80;3.50;;;19.00;97.40;;;;;;5013193;28;20415;-66
2021/04/29 10:39:11;;;;;;;5.73;2.70;;;19.20;96.30;;;;;;5013958;28;20440;-66
2021/04/29 10:41:37;;;;;;;7.40;3.50;;;19.20;96.80;;;;;;5013929;28;20817;-67
2021/04/29 10:44:18;;;;;;;7.00;3.47;;;19.10;96.80;;;;;;5013811;28;20492;-66
2021/04/29 10:46:48;;;;;;;6.83;3.23;;;19.20;96.70;;;;;;5013196;28;20167;-66
2021/04/29 10:49:16;;;;;;;6.40;3.43;;;19.40;94.10;;;;;;5014723;28;20425;-67
2021/04/29 10:51:45;;;;;;;7.83;3.33;;;19.30;94.20;;;;;;5033272;28;20417;-67
2021/04/29 10:54:30;;;;;;;6.70;3.33;;;19.40;95.40;;;;;;5019235;28;20418;-66
2021/04/29 10:57:15;;;;;;;6.53;3.23;;;19.10;95.90;;;;;;5032138;28;20551;-66
2021/04/29 10:59:42;;;;;;;8.73;3.87;;;18.80;96.00;;;;;;5029053;28;20503;-66
2021/04/29 11:02:34;;;;;;;6.90;3.10;;;18.80;96.70;;;;;;5013699;28;20792;-67
2021/04/29 11:05:00;;;;;;;6.37;3.00;;;18.70;97.40;;;;;;5022619;28;20421;-66
2021/04/29 11:07:28;;;;;;;6.20;3.13;;;18.90;97.60;;;;;;5036956;28;20516;-67
2021/04/29 11:10:01;;;;;;;4.97;2.50;;;19.20;98.20;;;;;;5032908;28;20449;-67
2021/04/29 11:12:54;;;;;;;5.70;2.13;;;19.40;94.10;;;;;;5019807;28;20435;-66
2021/04/29 11:15:21;;;;;;;5.20;2.50;;;19.10;93.90;;;;;;5024875;28;20436;-65
2021/04/29 11:17:58;;;;;;;5.80;2.03;;;18.40;93.40;;;;;;5030927;28;20472;-68
2021/04/29 11:20:24;;;;;;;5.13;2.10;;;17.60;93.80;;;;;;5025018;28;20519;-68
2021/04/29 11:22:55;;;;;;;5.47;2.40;;;17.10;93.70;;;;;;5037243;28;20403;-68
2021/04/29 11:25:20;;;;;;;5.00;2.60;;;16.60;94.90;;;;;;5030112;28;20179;-67
2021/04/29 11:27:52;;;;;;;5.53;2.30;;;16.20;93.70;;;;;;5021106;28;20508;-67
2021/04/29 11:30:18;;;;;;;6.67;2.67;;;15.80;94.80;;;;;;5031120;28;20237;-68
2021/04/29 11:33:13;;;;;;;5.90;2.40;;;15.70;94.20;;;;;;5017161;28;20422;-66
2021/04/29 11:35:41;;;;;;;6.27;2.60;;;15.40;95.00;;;;;;5020090;28;20830;-67
2021/04/29 11:38:09;;;;;;;5.97;2.40;;;15.20;95.60;;;;;;5035787;28;20460;-67
2021/04/29 11:40:36;;;;;;;12.73;2.23;;;15.20;96.50;;;;;;5047878;28;20420;-67
2021/04/29 11:43:04;;;;;;;7.30;2.90;;;15.30;96.50;;;;;;5029299;28;20421;-67
2021/04/29 11:45:31;;;;;;;5.40;2.30;;;15.40;96.80;;;;;;5016992;28;20949;-69
2021/04/29 11:48:10;;;;;;;7.40;2.70;;;15.60;95.10;;;;;;5016520;28;20799;-67
2021/04/29 11:50:39;;;;;;;5.87;1.90;;;15.60;95.70;;;;;;5023186;28;20965;-67
2021/04/29 11:53:11;;;;;;;5.70;1.77;;;15.80;94.40;;;;;;5029531;28;20421;-66
2021/04/29 11:55:42;;;;;;;5.47;2.13;;;15.90;94.50;;;;;;5026047;28;20413;-67
2021/04/29 11:58:13;;;;;;;5.40;2.07;;;15.90;94.80;;;;;;5036131;28;20467;-66
2021/04/29 12:00:45;;;;;;;5.10;2.30;;;16.00;95.50;;;;;;5047212;28;20845;-67
2021/04/29 12:03:12;;;;;;;6.50;2.40;;;16.10;94.50;;;;;;5017003;28;20421;-68
2021/04/29 12:05:42;;;;;;;6.30;2.90;;;16.20;93.50;;;;;;5016039;28;20447;-68
2021/04/29 12:08:25;;;;;;;6.50;2.10;;;16.20;93.80;;;;;;5019581;28;20485;-68
2021/04/29 12:10:52;;;;;;;5.70;2.53;;;16.10;93.60;;;;;;5016596;28;20395;-66
2021/04/29 12:13:37;;;;;;;6.20;2.50;;;16.20;94.00;;;;;;5021135;28;20430;-67
2021/04/29 12:16:21;;;;;;;5.50;2.20;;;16.20;93.70;;;;;;5029813;28;20426;-67
2021/04/29 12:18:50;;;;;;;5.20;1.67;;;16.20;93.40;;;;;;5019162;28;20462;-64
2021/04/29 12:21:17;;;;;;;4.93;1.87;;;16.30;93.70;;;;;;5022020;28;20812;-64
2021/04/29 12:23:44;;;;;;;5.20;2.00;;;16.60;93.90;;;;;;5035943;28;20392;-64
2021/04/29 12:26:12;;;;;;;6.33;1.67;;;16.80;93.70;;;;;;5029727;28;20438;-66
2021/04/29 12:28:42;;;;;;;5.50;2.20;;;17.00;93.70;;;;;;5025564;28;20434;-65
2021/04/29 12:31:16;;;;;;;4.60;1.90;;;17.30;93.40;;;;;;5020531;28;20422;-65
2021/04/29 12:34:02;;;;;;;4.63;2.00;;;17.50;92.00;;;;;;5035878;28;20405;-65
2021/04/29 12:36:36;;;;;;;4.97;2.00;;;17.70;92.00;;;;;;5028283;28;20815;-66
2021/04/29 12:39:13;;;;;;;5.93;2.37;;;17.70;92.00;;;;;;5033195;28;20434;-64
2021/04/29 12:41:39;;;;;;;5.60;1.60;;;17.60;90.60;;;;;;5033298;28;20423;-65
2021/04/29 12:44:05;;;;;;;4.80;1.87;;;17.50;91.50;;;;;;5032172;28;20777;-64
2021/04/29 12:46:39;;;;;;;4.60;1.47;;;17.30;90.90;;;;;;5034217;28;20166;-64
2021/04/29 12:49:06;;;;;;;4.90;1.70;;;17.20;91.60;;;;;;5032248;28;20473;-65
2021/04/29 12:51:34;;;;;;;5.47;2.10;;;17.20;91.90;;;;;;5034053;28;20429;-66